Terminal Aerodrome Forecast
Issued by NWS

Home | Current Version | Previous Version | Text Only | Print | Product List | Glossary On
Versions: 1 2 3 4 5 6 7 8 9 10 11 12 13 14
000
FTUS44 KLIX 010500 RRA
TAFGPT
TAF
KGPT 010542Z 0106/0206 11011KT P6SM OVC026
      TEMPO 0106/0108 5SM BR BKN015
     FM010800 08008KT 5SM BR BKN015
      TEMPO 0109/0113 3SM BR BKN010
     FM011400 08008KT P6SM OVC015
     FM012000 12008KT P6SM OVC015
     FM020300 13004KT P6SM OVC015=

USA.gov is the U.S. government's official web portal to all federal, state and local government web resources and services.